sensor_id;sensor_type;location;lat;lon;timestamp;P1;durP1;ratioP1;P2;durP2;ratioP2
75680;SDS011;64294;49.176;16.626;2022-12-04T00:00:19;27.42;;;14.68;;
75680;SDS011;64294;49.176;16.626;2022-12-04T00:02:44;28.02;;;15.30;;
75680;SDS011;64294;49.176;16.626;2022-12-04T00:05:10;25.77;;;14.32;;
75680;SDS011;64294;49.176;16.626;2022-12-04T00:07:35;25.33;;;13.82;;
75680;SDS011;64294;49.176;16.626;2022-12-04T00:10:01;26.50;;;14.40;;
75680;SDS011;64294;49.176;16.626;2022-12-04T00:12:27;27.92;;;14.55;;
75680;SDS011;64294;49.176;16.626;2022-12-04T00:14:53;31.17;;;15.02;;
75680;SDS011;64294;49.176;16.626;2022-12-04T00:17:19;28.40;;;15.65;;
75680;SDS011;64294;49.176;16.626;2022-12-04T00:19:44;27.85;;;14.40;;
75680;SDS011;64294;49.176;16.626;2022-12-04T00:22:09;27.05;;;14.48;;
75680;SDS011;64294;49.176;16.626;2022-12-04T00:24:35;26.65;;;13.48;;
75680;SDS011;64294;49.176;16.626;2022-12-04T00:27:00;27.17;;;14.38;;
75680;SDS011;64294;49.176;16.626;2022-12-04T00:29:26;23.77;;;12.90;;
75680;SDS011;64294;49.176;16.626;2022-12-04T00:31:52;28.25;;;14.18;;
75680;SDS011;64294;49.176;16.626;2022-12-04T00:34:17;26.83;;;13.98;;
75680;SDS011;64294;49.176;16.626;2022-12-04T00:36:42;27.30;;;14.82;;
75680;SDS011;64294;49.176;16.626;2022-12-04T00:39:08;28.73;;;14.38;;
75680;SDS011;64294;49.176;16.626;2022-12-04T00:41:33;25.95;;;13.95;;
75680;SDS011;64294;49.176;16.626;2022-12-04T00:43:59;27.40;;;13.88;;
75680;SDS011;64294;49.176;16.626;2022-12-04T00:46:26;27.05;;;14.15;;
75680;SDS011;64294;49.176;16.626;2022-12-04T00:48:52;26.30;;;14.60;;
75680;SDS011;64294;49.176;16.626;2022-12-04T00:51:19;26.10;;;14.13;;
75680;SDS011;64294;49.176;16.626;2022-12-04T00:53:46;26.33;;;14.25;;
75680;SDS011;64294;49.176;16.626;2022-12-04T00:56:14;29.67;;;14.90;;
75680;SDS011;64294;49.176;16.626;2022-12-04T00:58:42;29.35;;;14.73;;
75680;SDS011;64294;49.176;16.626;2022-12-04T01:01:08;28.50;;;14.38;;
75680;SDS011;64294;49.176;16.626;2022-12-04T01:03:38;27.08;;;13.10;;
75680;SDS011;64294;49.176;16.626;2022-12-04T01:06:04;27.13;;;14.88;;
75680;SDS011;64294;49.176;16.626;2022-12-04T01:08:30;27.73;;;14.82;;
75680;SDS011;64294;49.176;16.626;2022-12-04T01:11:03;32.25;;;15.70;;
75680;SDS011;64294;49.176;16.626;2022-12-04T01:13:30;30.05;;;15.45;;
75680;SDS011;64294;49.176;16.626;2022-12-04T01:15:55;30.48;;;16.10;;
75680;SDS011;64294;49.176;16.626;2022-12-04T01:18:20;28.20;;;14.93;;
75680;SDS011;64294;49.176;16.626;2022-12-04T01:20:48;27.92;;;15.23;;
75680;SDS011;64294;49.176;16.626;2022-12-04T01:23:15;30.23;;;15.25;;
75680;SDS011;64294;49.176;16.626;2022-12-04T01:25:54;30.00;;;16.13;;
75680;SDS011;64294;49.176;16.626;2022-12-04T01:28:21;29.67;;;15.95;;
75680;SDS011;64294;49.176;16.626;2022-12-04T01:31:01;32.38;;;15.95;;
75680;SDS011;64294;49.176;16.626;2022-12-04T01:33:37;30.95;;;16.40;;
75680;SDS011;64294;49.176;16.626;2022-12-04T01:36:04;31.23;;;15.80;;
75680;SDS011;64294;49.176;16.626;2022-12-04T01:38:32;32.20;;;15.90;;
75680;SDS011;64294;49.176;16.626;2022-12-04T01:40:58;32.38;;;15.10;;
75680;SDS011;64294;49.176;16.626;2022-12-04T01:43:24;33.83;;;16.52;;
75680;SDS011;64294;49.176;16.626;2022-12-04T01:45:52;30.17;;;16.48;;
75680;SDS011;64294;49.176;16.626;2022-12-04T01:53:33;34.55;;;17.70;;
75680;SDS011;64294;49.176;16.626;2022-12-04T01:56:02;32.28;;;16.60;;
75680;SDS011;64294;49.176;16.626;2022-12-04T01:58:30;27.40;;;15.45;;
75680;SDS011;64294;49.176;16.626;2022-12-04T02:01:00;30.30;;;16.45;;
75680;SDS011;64294;49.176;16.626;2022-12-04T02:03:28;34.10;;;17.55;;
75680;SDS011;64294;49.176;16.626;2022-12-04T02:05:53;32.80;;;16.75;;
75680;SDS011;64294;49.176;16.626;2022-12-04T02:08:18;31.13;;;16.83;;
75680;SDS011;64294;49.176;16.626;2022-12-04T02:18:58;29.10;;;15.60;;
75680;SDS011;64294;49.176;16.626;2022-12-04T02:21:47;34.33;;;16.77;;
75680;SDS011;64294;49.176;16.626;2022-12-04T02:24:34;32.55;;;17.15;;
75680;SDS011;64294;49.176;16.626;2022-12-04T02:27:28;30.02;;;17.15;;
75680;SDS011;64294;49.176;16.626;2022-12-04T02:30:06;33.92;;;17.52;;
75680;SDS011;64294;49.176;16.626;2022-12-04T02:32:36;33.15;;;16.23;;
75680;SDS011;64294;49.176;16.626;2022-12-04T02:37:33;34.08;;;17.27;;
75680;SDS011;64294;49.176;16.626;2022-12-04T02:42:52;35.88;;;17.70;;
75680;SDS011;64294;49.176;16.626;2022-12-04T02:45:25;32.92;;;16.70;;
75680;SDS011;64294;49.176;16.626;2022-12-04T02:48:01;32.95;;;16.77;;
75680;SDS011;64294;49.176;16.626;2022-12-04T02:50:29;31.40;;;16.55;;
75680;SDS011;64294;49.176;16.626;2022-12-04T02:53:01;34.45;;;17.67;;
75680;SDS011;64294;49.176;16.626;2022-12-04T02:55:34;32.97;;;16.88;;
75680;SDS011;64294;49.176;16.626;2022-12-04T02:58:08;33.72;;;18.05;;
75680;SDS011;64294;49.176;16.626;2022-12-04T03:00:41;31.95;;;17.33;;
75680;SDS011;64294;49.176;16.626;2022-12-04T03:03:22;35.10;;;18.88;;
75680;SDS011;64294;49.176;16.626;2022-12-04T03:06:09;31.65;;;17.27;;
75680;SDS011;64294;49.176;16.626;2022-12-04T03:08:42;32.80;;;16.92;;
75680;SDS011;64294;49.176;16.626;2022-12-04T03:11:11;34.30;;;17.60;;
75680;SDS011;64294;49.176;16.626;2022-12-04T03:13:38;35.05;;;17.48;;
75680;SDS011;64294;49.176;16.626;2022-12-04T03:16:25;33.72;;;17.40;;
75680;SDS011;64294;49.176;16.626;2022-12-04T03:19:16;35.00;;;17.83;;
75680;SDS011;64294;49.176;16.626;2022-12-04T03:24:43;34.78;;;16.55;;
75680;SDS011;64294;49.176;16.626;2022-12-04T03:27:17;30.85;;;16.38;;
75680;SDS011;64294;49.176;16.626;2022-12-04T03:30:00;32.88;;;17.90;;
75680;SDS011;64294;49.176;16.626;2022-12-04T03:32:40;33.70;;;16.73;;
75680;SDS011;64294;49.176;16.626;2022-12-04T03:35:15;35.85;;;18.88;;
75680;SDS011;64294;49.176;16.626;2022-12-04T03:37:45;33.08;;;17.98;;
75680;SDS011;64294;49.176;16.626;2022-12-04T03:48:16;30.10;;;16.65;;
75680;SDS011;64294;49.176;16.626;2022-12-04T03:50:50;30.80;;;16.90;;
75680;SDS011;64294;49.176;16.626;2022-12-04T03:58:33;31.38;;;16.00;;
75680;SDS011;64294;49.176;16.626;2022-12-04T04:01:02;32.90;;;16.45;;
75680;SDS011;64294;49.176;16.626;2022-12-04T04:03:33;31.33;;;16.63;;
75680;SDS011;64294;49.176;16.626;2022-12-04T04:06:06;29.08;;;16.23;;
75680;SDS011;64294;49.176;16.626;2022-12-04T04:08:41;29.10;;;16.13;;
75680;SDS011;64294;49.176;16.626;2022-12-04T04:11:11;30.55;;;17.20;;
75680;SDS011;64294;49.176;16.626;2022-12-04T04:13:46;30.85;;;16.40;;
75680;SDS011;64294;49.176;16.626;2022-12-04T04:17:05;29.38;;;15.32;;
75680;SDS011;64294;49.176;16.626;2022-12-04T04:20:04;31.67;;;16.65;;
75680;SDS011;64294;49.176;16.626;2022-12-04T04:22:58;29.63;;;15.30;;
75680;SDS011;64294;49.176;16.626;2022-12-04T04:25:45;28.48;;;16.15;;
75680;SDS011;64294;49.176;16.626;2022-12-04T04:30:55;30.15;;;17.17;;
75680;SDS011;64294;49.176;16.626;2022-12-04T04:33:31;30.73;;;16.40;;
75680;SDS011;64294;49.176;16.626;2022-12-04T04:36:13;30.95;;;16.35;;
75680;SDS011;64294;49.176;16.626;2022-12-04T04:38:59;30.80;;;16.25;;
75680;SDS011;64294;49.176;16.626;2022-12-04T04:41:48;33.33;;;17.67;;
75680;SDS011;64294;49.176;16.626;2022-12-04T04:44:23;29.77;;;16.67;;
75680;SDS011;64294;49.176;16.626;2022-12-04T04:47:02;31.67;;;16.60;;
75680;SDS011;64294;49.176;16.626;2022-12-04T04:49:38;27.08;;;16.05;;
75680;SDS011;64294;49.176;16.626;2022-12-04T04:52:07;30.00;;;15.98;;
75680;SDS011;64294;49.176;16.626;2022-12-04T04:54:36;32.40;;;16.98;;
75680;SDS011;64294;49.176;16.626;2022-12-04T04:57:02;37.40;;;16.90;;
75680;SDS011;64294;49.176;16.626;2022-12-04T04:59:28;29.80;;;15.82;;
75680;SDS011;64294;49.176;16.626;2022-12-04T05:01:53;29.25;;;15.82;;
75680;SDS011;64294;49.176;16.626;2022-12-04T05:04:19;30.70;;;16.88;;
75680;SDS011;64294;49.176;16.626;2022-12-04T05:06:44;30.48;;;15.50;;
75680;SDS011;64294;49.176;16.626;2022-12-04T05:09:09;29.33;;;16.17;;
75680;SDS011;64294;49.176;16.626;2022-12-04T05:11:37;28.52;;;15.60;;
75680;SDS011;64294;49.176;16.626;2022-12-04T05:14:05;28.83;;;15.60;;
75680;SDS011;64294;49.176;16.626;2022-12-04T05:16:31;27.13;;;15.20;;
75680;SDS011;64294;49.176;16.626;2022-12-04T05:18:59;26.23;;;15.10;;
75680;SDS011;64294;49.176;16.626;2022-12-04T05:21:43;27.00;;;15.07;;
75680;SDS011;64294;49.176;16.626;2022-12-04T05:24:10;26.00;;;14.82;;
75680;SDS011;64294;49.176;16.626;2022-12-04T05:26:38;28.48;;;15.75;;
75680;SDS011;64294;49.176;16.626;2022-12-04T05:29:04;26.35;;;14.00;;
75680;SDS011;64294;49.176;16.626;2022-12-04T05:31:29;28.15;;;15.80;;
75680;SDS011;64294;49.176;16.626;2022-12-04T05:33:55;28.50;;;14.82;;
75680;SDS011;64294;49.176;16.626;2022-12-04T05:36:20;26.70;;;14.75;;
75680;SDS011;64294;49.176;16.626;2022-12-04T05:38:46;30.25;;;15.38;;
75680;SDS011;64294;49.176;16.626;2022-12-04T05:41:11;27.08;;;14.98;;
75680;SDS011;64294;49.176;16.626;2022-12-04T05:43:38;27.15;;;14.50;;
75680;SDS011;64294;49.176;16.626;2022-12-04T05:46:05;27.20;;;13.98;;
75680;SDS011;64294;49.176;16.626;2022-12-04T05:48:31;25.75;;;13.40;;
75680;SDS011;64294;49.176;16.626;2022-12-04T05:50:59;27.23;;;14.27;;
75680;SDS011;64294;49.176;16.626;2022-12-04T05:53:34;26.30;;;14.60;;
75680;SDS011;64294;49.176;16.626;2022-12-04T05:56:01;25.60;;;13.63;;
75680;SDS011;64294;49.176;16.626;2022-12-04T05:58:27;24.27;;;13.65;;
75680;SDS011;64294;49.176;16.626;2022-12-04T06:00:53;28.02;;;13.95;;
75680;SDS011;64294;49.176;16.626;2022-12-04T06:03:22;26.95;;;14.48;;
75680;SDS011;64294;49.176;16.626;2022-12-04T06:05:47;26.88;;;14.68;;
75680;SDS011;64294;49.176;16.626;2022-12-04T06:08:12;27.75;;;14.07;;
75680;SDS011;64294;49.176;16.626;2022-12-04T06:10:38;28.73;;;15.27;;
75680;SDS011;64294;49.176;16.626;2022-12-04T06:13:04;25.88;;;14.50;;
75680;SDS011;64294;49.176;16.626;2022-12-04T06:15:30;27.42;;;14.23;;
75680;SDS011;64294;49.176;16.626;2022-12-04T06:17:55;27.55;;;14.35;;
75680;SDS011;64294;49.176;16.626;2022-12-04T06:20:21;27.25;;;15.05;;
75680;SDS011;64294;49.176;16.626;2022-12-04T06:22:46;29.33;;;14.70;;
75680;SDS011;64294;49.176;16.626;2022-12-04T06:25:12;29.20;;;14.85;;
75680;SDS011;64294;49.176;16.626;2022-12-04T06:27:37;28.77;;;16.13;;
75680;SDS011;64294;49.176;16.626;2022-12-04T06:30:02;31.05;;;15.73;;
75680;SDS011;64294;49.176;16.626;2022-12-04T06:32:28;31.08;;;17.15;;
75680;SDS011;64294;49.176;16.626;2022-12-04T06:34:53;28.27;;;15.77;;
75680;SDS011;64294;49.176;16.626;2022-12-04T06:37:20;32.10;;;16.70;;
75680;SDS011;64294;49.176;16.626;2022-12-04T06:39:46;26.85;;;14.75;;
75680;SDS011;64294;49.176;16.626;2022-12-04T06:42:12;31.52;;;17.50;;
75680;SDS011;64294;49.176;16.626;2022-12-04T06:44:37;30.60;;;15.18;;
75680;SDS011;64294;49.176;16.626;2022-12-04T06:47:02;27.58;;;14.80;;
75680;SDS011;64294;49.176;16.626;2022-12-04T06:49:28;28.75;;;16.05;;
75680;SDS011;64294;49.176;16.626;2022-12-04T06:51:53;29.42;;;15.05;;
75680;SDS011;64294;49.176;16.626;2022-12-04T06:54:21;28.48;;;15.93;;
75680;SDS011;64294;49.176;16.626;2022-12-04T06:56:47;27.33;;;14.68;;
75680;SDS011;64294;49.176;16.626;2022-12-04T06:59:13;29.73;;;15.60;;
75680;SDS011;64294;49.176;16.626;2022-12-04T07:01:39;29.33;;;16.15;;
75680;SDS011;64294;49.176;16.626;2022-12-04T07:04:04;28.20;;;14.73;;
75680;SDS011;64294;49.176;16.626;2022-12-04T07:06:31;28.63;;;15.07;;
75680;SDS011;64294;49.176;16.626;2022-12-04T07:09:03;27.95;;;14.80;;
75680;SDS011;64294;49.176;16.626;2022-12-04T07:11:38;27.63;;;15.27;;
75680;SDS011;64294;49.176;16.626;2022-12-04T07:14:04;26.77;;;15.00;;
75680;SDS011;64294;49.176;16.626;2022-12-04T07:16:30;28.42;;;14.82;;
75680;SDS011;64294;49.176;16.626;2022-12-04T07:18:56;26.92;;;14.73;;
75680;SDS011;64294;49.176;16.626;2022-12-04T07:21:22;27.70;;;15.40;;
75680;SDS011;64294;49.176;16.626;2022-12-04T07:23:50;29.70;;;14.88;;
75680;SDS011;64294;49.176;16.626;2022-12-04T07:26:17;28.38;;;15.43;;
75680;SDS011;64294;49.176;16.626;2022-12-04T07:28:43;26.30;;;14.48;;
75680;SDS011;64294;49.176;16.626;2022-12-04T07:31:15;30.48;;;15.55;;
75680;SDS011;64294;49.176;16.626;2022-12-04T07:33:42;29.70;;;14.70;;
75680;SDS011;64294;49.176;16.626;2022-12-04T07:36:10;27.42;;;14.45;;
75680;SDS011;64294;49.176;16.626;2022-12-04T07:38:37;28.60;;;14.23;;
75680;SDS011;64294;49.176;16.626;2022-12-04T07:41:03;25.90;;;13.32;;
75680;SDS011;64294;49.176;16.626;2022-12-04T07:43:30;29.38;;;15.18;;
75680;SDS011;64294;49.176;16.626;2022-12-04T07:45:56;26.02;;;13.88;;
75680;SDS011;64294;49.176;16.626;2022-12-04T07:48:23;24.70;;;13.73;;
75680;SDS011;64294;49.176;16.626;2022-12-04T07:50:48;24.00;;;13.57;;
75680;SDS011;64294;49.176;16.626;2022-12-04T07:53:14;25.73;;;13.70;;
75680;SDS011;64294;49.176;16.626;2022-12-04T07:55:39;25.85;;;13.73;;
75680;SDS011;64294;49.176;16.626;2022-12-04T07:58:05;24.45;;;12.82;;
75680;SDS011;64294;49.176;16.626;2022-12-04T08:00:30;23.77;;;12.98;;
75680;SDS011;64294;49.176;16.626;2022-12-04T08:02:56;23.30;;;13.07;;
75680;SDS011;64294;49.176;16.626;2022-12-04T08:05:24;24.95;;;13.77;;
75680;SDS011;64294;49.176;16.626;2022-12-04T08:07:49;24.58;;;13.43;;
75680;SDS011;64294;49.176;16.626;2022-12-04T08:10:15;26.00;;;14.25;;
75680;SDS011;64294;49.176;16.626;2022-12-04T08:12:40;24.17;;;12.82;;
75680;SDS011;64294;49.176;16.626;2022-12-04T08:15:06;24.38;;;13.95;;
75680;SDS011;64294;49.176;16.626;2022-12-04T08:17:31;22.10;;;12.70;;
75680;SDS011;64294;49.176;16.626;2022-12-04T08:19:57;20.00;;;11.38;;
75680;SDS011;64294;49.176;16.626;2022-12-04T08:22:22;20.73;;;11.02;;
75680;SDS011;64294;49.176;16.626;2022-12-04T08:24:48;21.13;;;11.30;;
75680;SDS011;64294;49.176;16.626;2022-12-04T08:27:13;17.75;;;11.15;;
75680;SDS011;64294;49.176;16.626;2022-12-04T08:29:39;19.58;;;11.25;;
75680;SDS011;64294;49.176;16.626;2022-12-04T08:32:04;19.05;;;10.43;;
75680;SDS011;64294;49.176;16.626;2022-12-04T08:34:29;18.67;;;10.55;;
75680;SDS011;64294;49.176;16.626;2022-12-04T08:36:55;19.58;;;11.15;;
75680;SDS011;64294;49.176;16.626;2022-12-04T08:39:21;17.88;;;10.32;;
75680;SDS011;64294;49.176;16.626;2022-12-04T08:41:46;17.48;;;10.52;;
75680;SDS011;64294;49.176;16.626;2022-12-04T08:44:11;17.95;;;10.60;;
75680;SDS011;64294;49.176;16.626;2022-12-04T08:46:37;18.80;;;11.20;;
75680;SDS011;64294;49.176;16.626;2022-12-04T08:49:03;20.88;;;11.60;;
75680;SDS011;64294;49.176;16.626;2022-12-04T08:51:29;21.17;;;12.25;;
75680;SDS011;64294;49.176;16.626;2022-12-04T08:53:57;21.58;;;12.63;;
75680;SDS011;64294;49.176;16.626;2022-12-04T08:56:25;22.83;;;12.60;;
75680;SDS011;64294;49.176;16.626;2022-12-04T08:58:52;22.58;;;11.77;;
75680;SDS011;64294;49.176;16.626;2022-12-04T09:01:19;21.27;;;12.02;;
75680;SDS011;64294;49.176;16.626;2022-12-04T09:03:44;21.50;;;13.15;;
75680;SDS011;64294;49.176;16.626;2022-12-04T09:06:11;24.02;;;13.00;;
75680;SDS011;64294;49.176;16.626;2022-12-04T09:08:38;22.33;;;12.50;;
75680;SDS011;64294;49.176;16.626;2022-12-04T09:11:04;22.02;;;12.55;;
75680;SDS011;64294;49.176;16.626;2022-12-04T09:13:33;20.20;;;11.65;;
75680;SDS011;64294;49.176;16.626;2022-12-04T09:16:01;21.65;;;11.73;;
75680;SDS011;64294;49.176;16.626;2022-12-04T09:18:29;23.92;;;14.00;;
75680;SDS011;64294;49.176;16.626;2022-12-04T09:20:55;26.13;;;14.68;;
75680;SDS011;64294;49.176;16.626;2022-12-04T09:23:22;20.48;;;12.75;;
75680;SDS011;64294;49.176;16.626;2022-12-04T09:25:48;20.45;;;12.13;;
75680;SDS011;64294;49.176;16.626;2022-12-04T09:28:13;26.30;;;12.45;;
75680;SDS011;64294;49.176;16.626;2022-12-04T09:30:38;21.60;;;12.38;;
75680;SDS011;64294;49.176;16.626;2022-12-04T09:33:04;20.88;;;13.07;;
75680;SDS011;64294;49.176;16.626;2022-12-04T09:35:32;21.40;;;11.77;;
75680;SDS011;64294;49.176;16.626;2022-12-04T09:37:58;20.63;;;12.23;;
75680;SDS011;64294;49.176;16.626;2022-12-04T09:40:26;22.77;;;13.18;;
75680;SDS011;64294;49.176;16.626;2022-12-04T09:45:46;19.15;;;11.45;;
75680;SDS011;64294;49.176;16.626;2022-12-04T09:48:15;19.33;;;10.75;;
75680;SDS011;64294;49.176;16.626;2022-12-04T09:50:44;22.98;;;12.38;;
75680;SDS011;64294;49.176;16.626;2022-12-04T09:53:14;23.58;;;12.45;;
75680;SDS011;64294;49.176;16.626;2022-12-04T09:55:43;23.08;;;12.02;;
75680;SDS011;64294;49.176;16.626;2022-12-04T09:58:16;22.65;;;12.25;;
75680;SDS011;64294;49.176;16.626;2022-12-04T10:00:46;21.17;;;11.48;;
75680;SDS011;64294;49.176;16.626;2022-12-04T10:03:16;19.15;;;11.85;;
75680;SDS011;64294;49.176;16.626;2022-12-04T10:08:39;19.95;;;10.80;;
75680;SDS011;64294;49.176;16.626;2022-12-04T10:11:17;20.40;;;11.70;;
75680;SDS011;64294;49.176;16.626;2022-12-04T10:25:22;19.70;;;10.68;;
75680;SDS011;64294;49.176;16.626;2022-12-04T10:27:57;16.98;;;10.82;;
75680;SDS011;64294;49.176;16.626;2022-12-04T10:30:31;17.83;;;11.05;;
75680;SDS011;64294;49.176;16.626;2022-12-04T10:35:56;18.88;;;10.43;;
75680;SDS011;64294;49.176;16.626;2022-12-04T10:38:28;20.08;;;11.45;;
75680;SDS011;64294;49.176;16.626;2022-12-04T10:44:14;19.98;;;11.38;;
75680;SDS011;64294;49.176;16.626;2022-12-04T10:46:40;19.63;;;10.63;;
75680;SDS011;64294;49.176;16.626;2022-12-04T10:49:12;20.58;;;11.20;;
75680;SDS011;64294;49.176;16.626;2022-12-04T10:51:41;19.20;;;10.40;;
75680;SDS011;64294;49.176;16.626;2022-12-04T10:59:26;20.75;;;10.82;;
75680;SDS011;64294;49.176;16.626;2022-12-04T11:01:58;19.88;;;11.10;;
75680;SDS011;64294;49.176;16.626;2022-12-04T11:04:25;20.40;;;11.63;;
75680;SDS011;64294;49.176;16.626;2022-12-04T11:09:32;21.83;;;11.70;;
75680;SDS011;64294;49.176;16.626;2022-12-04T11:12:05;16.52;;;9.82;;
75680;SDS011;64294;49.176;16.626;2022-12-04T11:14:34;18.60;;;11.55;;
75680;SDS011;64294;49.176;16.626;2022-12-04T11:17:03;18.65;;;10.43;;
75680;SDS011;64294;49.176;16.626;2022-12-04T11:19:31;21.23;;;10.52;;
75680;SDS011;64294;49.176;16.626;2022-12-04T11:22:11;19.15;;;9.68;;
75680;SDS011;64294;49.176;16.626;2022-12-04T11:24:38;15.00;;;9.38;;
75680;SDS011;64294;49.176;16.626;2022-12-04T11:27:07;16.55;;;9.18;;
75680;SDS011;64294;49.176;16.626;2022-12-04T11:29:44;17.05;;;9.32;;
75680;SDS011;64294;49.176;16.626;2022-12-04T11:32:20;22.35;;;11.70;;
75680;SDS011;64294;49.176;16.626;2022-12-04T11:34:49;17.02;;;8.73;;
75680;SDS011;64294;49.176;16.626;2022-12-04T11:37:20;17.75;;;9.70;;
75680;SDS011;64294;49.176;16.626;2022-12-04T11:39:49;15.40;;;8.43;;
75680;SDS011;64294;49.176;16.626;2022-12-04T11:42:17;17.15;;;9.27;;
75680;SDS011;64294;49.176;16.626;2022-12-04T11:44:48;15.55;;;9.27;;
75680;SDS011;64294;49.176;16.626;2022-12-04T11:47:16;17.67;;;8.95;;
75680;SDS011;64294;49.176;16.626;2022-12-04T11:49:43;15.35;;;9.02;;
75680;SDS011;64294;49.176;16.626;2022-12-04T11:54:59;16.48;;;9.00;;
75680;SDS011;64294;49.176;16.626;2022-12-04T11:57:33;18.98;;;9.70;;
75680;SDS011;64294;49.176;16.626;2022-12-04T12:02:54;17.45;;;9.68;;
75680;SDS011;64294;49.176;16.626;2022-12-04T12:13:38;19.38;;;9.55;;
75680;SDS011;64294;49.176;16.626;2022-12-04T12:22:12;20.52;;;9.77;;
75680;SDS011;64294;49.176;16.626;2022-12-04T12:25:13;18.73;;;10.05;;
75680;SDS011;64294;49.176;16.626;2022-12-04T12:28:01;19.17;;;11.48;;
75680;SDS011;64294;49.176;16.626;2022-12-04T12:33:25;18.33;;;10.18;;
75680;SDS011;64294;49.176;16.626;2022-12-04T12:38:46;18.92;;;10.65;;
75680;SDS011;64294;49.176;16.626;2022-12-04T12:41:41;18.35;;;10.40;;
75680;SDS011;64294;49.176;16.626;2022-12-04T12:44:24;17.17;;;10.48;;
75680;SDS011;64294;49.176;16.626;2022-12-04T12:47:06;16.55;;;9.93;;
75680;SDS011;64294;49.176;16.626;2022-12-04T12:49:51;19.88;;;11.20;;
75680;SDS011;64294;49.176;16.626;2022-12-04T12:54:59;20.15;;;10.15;;
75680;SDS011;64294;49.176;16.626;2022-12-04T12:57:48;21.25;;;11.27;;
75680;SDS011;64294;49.176;16.626;2022-12-04T13:00:38;15.55;;;9.38;;
75680;SDS011;64294;49.176;16.626;2022-12-04T13:05:51;16.73;;;9.07;;
75680;SDS011;64294;49.176;16.626;2022-12-04T13:08:37;20.67;;;9.25;;
75680;SDS011;64294;49.176;16.626;2022-12-04T13:11:09;16.98;;;9.63;;
75680;SDS011;64294;49.176;16.626;2022-12-04T13:30:09;20.63;;;11.27;;
75680;SDS011;64294;49.176;16.626;2022-12-04T13:40:59;21.67;;;11.38;;
75680;SDS011;64294;49.176;16.626;2022-12-04T13:43:48;19.65;;;11.00;;
75680;SDS011;64294;49.176;16.626;2022-12-04T13:46:28;19.95;;;12.07;;
75680;SDS011;64294;49.176;16.626;2022-12-04T13:49:23;20.35;;;11.50;;
75680;SDS011;64294;49.176;16.626;2022-12-04T13:51:51;20.30;;;11.45;;
75680;SDS011;64294;49.176;16.626;2022-12-04T13:56:51;22.33;;;12.23;;
75680;SDS011;64294;49.176;16.626;2022-12-04T14:01:51;18.75;;;11.13;;
75680;SDS011;64294;49.176;16.626;2022-12-04T14:04:25;21.67;;;11.93;;
75680;SDS011;64294;49.176;16.626;2022-12-04T14:07:04;20.00;;;11.32;;
75680;SDS011;64294;49.176;16.626;2022-12-04T14:09:40;20.25;;;11.23;;
75680;SDS011;64294;49.176;16.626;2022-12-04T14:12:11;22.23;;;11.48;;
75680;SDS011;64294;49.176;16.626;2022-12-04T14:14:43;20.60;;;11.80;;
75680;SDS011;64294;49.176;16.626;2022-12-04T14:17:27;18.42;;;10.52;;
75680;SDS011;64294;49.176;16.626;2022-12-04T14:19:56;17.30;;;11.00;;
75680;SDS011;64294;49.176;16.626;2022-12-04T14:30:04;21.35;;;11.25;;
75680;SDS011;64294;49.176;16.626;2022-12-04T14:32:39;21.33;;;11.55;;
75680;SDS011;64294;49.176;16.626;2022-12-04T14:35:12;21.95;;;11.15;;
75680;SDS011;64294;49.176;16.626;2022-12-04T14:37:41;19.75;;;10.80;;
75680;SDS011;64294;49.176;16.626;2022-12-04T14:40:15;20.67;;;11.32;;
75680;SDS011;64294;49.176;16.626;2022-12-04T14:42:47;19.40;;;10.93;;
75680;SDS011;64294;49.176;16.626;2022-12-04T14:45:19;19.25;;;10.85;;
75680;SDS011;64294;49.176;16.626;2022-12-04T14:48:01;20.08;;;10.82;;
75680;SDS011;64294;49.176;16.626;2022-12-04T14:50:37;16.50;;;10.70;;
75680;SDS011;64294;49.176;16.626;2022-12-04T14:55:41;22.75;;;10.70;;
75680;SDS011;64294;49.176;16.626;2022-12-04T14:58:16;18.13;;;10.20;;
75680;SDS011;64294;49.176;16.626;2022-12-04T15:03:48;18.88;;;10.60;;
75680;SDS011;64294;49.176;16.626;2022-12-04T15:06:19;20.40;;;10.80;;
75680;SDS011;64294;49.176;16.626;2022-12-04T15:08:49;19.63;;;11.30;;
75680;SDS011;64294;49.176;16.626;2022-12-04T15:11:49;18.70;;;10.70;;
75680;SDS011;64294;49.176;16.626;2022-12-04T15:14:42;19.83;;;10.85;;
75680;SDS011;64294;49.176;16.626;2022-12-04T15:17:12;18.25;;;9.77;;
75680;SDS011;64294;49.176;16.626;2022-12-04T15:19:39;19.95;;;10.38;;
75680;SDS011;64294;49.176;16.626;2022-12-04T15:22:24;18.77;;;10.82;;
75680;SDS011;64294;49.176;16.626;2022-12-04T15:24:51;19.27;;;11.18;;
75680;SDS011;64294;49.176;16.626;2022-12-04T15:27:18;17.73;;;9.95;;
75680;SDS011;64294;49.176;16.626;2022-12-04T15:29:47;19.13;;;10.48;;
75680;SDS011;64294;49.176;16.626;2022-12-04T15:32:16;18.13;;;10.40;;
75680;SDS011;64294;49.176;16.626;2022-12-04T15:34:54;18.75;;;10.68;;
75680;SDS011;64294;49.176;16.626;2022-12-04T15:37:27;20.02;;;11.45;;
75680;SDS011;64294;49.176;16.626;2022-12-04T15:39:55;19.38;;;10.85;;
75680;SDS011;64294;49.176;16.626;2022-12-04T15:44:50;17.88;;;10.38;;
75680;SDS011;64294;49.176;16.626;2022-12-04T15:47:26;19.77;;;11.02;;
75680;SDS011;64294;49.176;16.626;2022-12-04T15:49:53;21.48;;;11.52;;
75680;SDS011;64294;49.176;16.626;2022-12-04T15:52:20;22.48;;;11.18;;
75680;SDS011;64294;49.176;16.626;2022-12-04T15:54:50;19.05;;;10.73;;
75680;SDS011;64294;49.176;16.626;2022-12-04T15:59:54;19.30;;;10.70;;
75680;SDS011;64294;49.176;16.626;2022-12-04T16:02:28;19.38;;;10.73;;
75680;SDS011;64294;49.176;16.626;2022-12-04T16:04:56;19.52;;;10.80;;
75680;SDS011;64294;49.176;16.626;2022-12-04T16:07:23;21.38;;;10.43;;
75680;SDS011;64294;49.176;16.626;2022-12-04T16:09:54;20.88;;;11.40;;
75680;SDS011;64294;49.176;16.626;2022-12-04T16:12:25;20.13;;;10.77;;
75680;SDS011;64294;49.176;16.626;2022-12-04T16:14:53;18.40;;;10.98;;
75680;SDS011;64294;49.176;16.626;2022-12-04T16:17:27;16.98;;;9.65;;
75680;SDS011;64294;49.176;16.626;2022-12-04T16:19:54;17.88;;;10.15;;
75680;SDS011;64294;49.176;16.626;2022-12-04T16:22:21;16.90;;;9.68;;
75680;SDS011;64294;49.176;16.626;2022-12-04T16:24:48;18.50;;;10.35;;
75680;SDS011;64294;49.176;16.626;2022-12-04T16:27:16;19.33;;;10.48;;
75680;SDS011;64294;49.176;16.626;2022-12-04T16:29:47;17.52;;;10.05;;
75680;SDS011;64294;49.176;16.626;2022-12-04T16:32:16;19.65;;;9.98;;
75680;SDS011;64294;49.176;16.626;2022-12-04T16:34:44;19.17;;;10.13;;
75680;SDS011;64294;49.176;16.626;2022-12-04T16:37:15;18.27;;;9.55;;
75680;SDS011;64294;49.176;16.626;2022-12-04T16:39:41;18.65;;;10.07;;
75680;SDS011;64294;49.176;16.626;2022-12-04T16:42:24;19.85;;;10.05;;
75680;SDS011;64294;49.176;16.626;2022-12-04T16:44:52;22.15;;;10.70;;
75680;SDS011;64294;49.176;16.626;2022-12-04T16:47:18;20.05;;;10.07;;
75680;SDS011;64294;49.176;16.626;2022-12-04T16:49:44;16.88;;;9.75;;
75680;SDS011;64294;49.176;16.626;2022-12-04T16:52:12;20.67;;;11.07;;
75680;SDS011;64294;49.176;16.626;2022-12-04T16:54:38;19.25;;;10.63;;
75680;SDS011;64294;49.176;16.626;2022-12-04T16:57:04;21.67;;;11.65;;